Main page
METAR-TAF:

METAR-TAF

Airports :

Fernandina Beach Municipal Airport

Fernandina Beach, Florida, United States

latitude: 30-36-43N, longitude: 081-27-40W, elevation: 16 ft

Current weather observation

The report was made 26 minutes ago, at 12:55 UTC
Wind 6 mph from the South/Southwest
Temperature 79°F
Humidity 94%
Pressure 30.06 in. Hg
Visibility: 10 miles
Clear sky

METAR: KFHB 281255Z AUTO 20005KT 10SM CLR 26/25 A3006 RMK AO2 T02560253

Time: 09:21 (13:21 UTC)


TAF: missing

Weather observations and forecasts of more than 4000 airports (METAR and TAF reports).

The available stations are represented by yellow and red dots on the map.

Hover mouse over dot to see the name of the station.

Then click to see weather observations and forecasts.

To change the map : click on the green buttons with a black cross to zoom in, on the green button with a dash to zoom out, or on the green arrows for adjacent maps.


METAR-TAF: